Time;durP1;ratioP1;P1;durP2;ratioP2;P2;SDS_P1;SDS_P2;PMS_P1;PMS_P2;Temp;Humidity;BMP_temperature;BMP_pressure;BME280_temperature;BME280_humidity;BME280_pressure;Samples;Min_cycle;Max_cycle;Signal;HPM_P1;HPM_P2
2022/11/06 00:01:40;;;;;;;11.27;5.07;;;;;;;10.89;100.00;101233.50;5044251;28;20048;-74
2022/11/06 00:04:06;;;;;;;12.73;5.25;;;;;;;10.86;100.00;101229.53;5044957;28;20757;-74
2022/11/06 00:06:48;;;;;;;16.17;4.40;;;;;;;10.83;100.00;101219.22;5042811;28;20055;-74
2022/11/06 00:09:19;;;;;;;17.45;5.13;;;;;;;10.87;100.00;101220.03;5046593;28;20045;-72
2022/11/06 00:11:47;;;;;;;12.50;5.10;;;;;;;10.89;100.00;101226.00;5050026;28;20850;-75
2022/11/06 00:14:14;;;;;;;14.70;5.55;;;;;;;10.89;100.00;101219.66;5045999;28;20666;-73
2022/11/06 00:16:41;;;;;;;13.38;4.20;;;;;;;10.84;100.00;101225.56;5051693;28;20051;-73
2022/11/06 00:19:09;;;;;;;7.70;3.17;;;;;;;10.84;100.00;101223.59;5039424;28;20805;-73
2022/11/06 00:21:36;;;;;;;18.88;5.22;;;;;;;10.86;100.00;101225.97;5044275;28;20530;-72
2022/11/06 00:24:05;;;;;;;12.18;4.88;;;;;;;10.84;100.00;101220.03;5044372;28;20048;-73
2022/11/06 00:26:32;;;;;;;11.90;4.30;;;;;;;10.79;100.00;101212.06;5041888;28;20048;-72
2022/11/06 00:28:59;;;;;;;14.38;4.82;;;;;;;10.71;100.00;101214.03;5046886;28;20056;-73
2022/11/06 00:31:28;;;;;;;14.50;4.32;;;;;;;10.71;100.00;101214.03;5040165;28;20936;-73
2022/11/06 00:33:57;;;;;;;14.70;4.50;;;;;;;10.67;100.00;101212.41;5047209;28;20063;-72
2022/11/06 00:36:26;;;;;;;8.73;4.18;;;;;;;10.60;100.00;101223.44;5043554;28;20082;-72
2022/11/06 00:38:54;;;;;;;14.35;6.20;;;;;;;10.60;100.00;101218.72;5046674;28;20750;-72
2022/11/06 00:41:21;;;;;;;10.77;4.22;;;;;;;10.62;100.00;101221.88;5045663;28;20057;-72
2022/11/06 00:44:01;;;;;;;15.13;4.50;;;;;;;10.62;100.00;101216.34;5043987;28;20136;-72
2022/11/06 00:46:28;;;;;;;8.35;4.20;;;;;;;10.57;100.00;101210.38;5038010;28;20045;-72
2022/11/06 00:48:55;;;;;;;13.70;4.22;;;;;;;10.63;100.00;101217.13;5035828;28;20045;-72
2022/11/06 00:51:27;;;;;;;13.02;4.82;;;;;;;10.54;100.00;101220.25;5037285;28;20101;-72
2022/11/06 00:53:56;;;;;;;11.68;3.20;;;;;;;10.50;100.00;101233.25;5045361;28;20060;-72
2022/11/06 00:56:23;;;;;;;6.10;2.47;;;;;;;10.26;100.00;101193.16;5042355;28;20838;-73
2022/11/06 00:58:50;;;;;;;15.27;4.97;;;;;;;10.53;100.00;101241.56;5040257;28;20125;-72
2022/11/06 01:01:22;;;;;;;12.50;4.65;;;;;;;10.49;100.00;101234.41;5041236;28;20052;-72
2022/11/06 01:03:58;;;;;;;5.25;1.75;;;;;;;10.46;100.00;101235.97;5044638;28;20049;-72
2022/11/06 01:06:28;;;;;;;13.38;4.00;;;;;;;10.47;100.00;101231.25;5059293;28;20055;-72
2022/11/06 01:08:55;;;;;;;15.80;4.43;;;;;;;10.44;100.00;101216.19;5063247;28;20062;-72
2022/11/06 01:11:25;;;;;;;11.40;4.22;;;;;;;10.43;100.00;101224.91;5064461;28;20044;-72
2022/11/06 01:13:54;;;;;;;10.93;4.10;;;;;;;10.44;100.00;101218.19;5063045;28;20040;-72
2022/11/06 01:16:22;;;;;;;12.25;4.07;;;;;;;10.32;100.00;101218.47;5062039;28;20044;-72
2022/11/06 01:18:50;;;;;;;13.60;4.35;;;;;;;10.44;100.00;101204.34;5065434;28;20157;-72
2022/11/06 01:21:25;;;;;;;8.93;3.03;;;;;;;10.33;100.00;101204.25;5068371;28;20068;-73
2022/11/06 01:23:57;;;;;;;5.38;2.55;;;;;;;10.37;100.00;101216.16;5054286;28;20195;-72
2022/11/06 01:26:26;;;;;;;11.73;4.07;;;;;;;10.41;100.00;101189.31;5068320;28;20048;-71
2022/11/06 01:29:06;;;;;;;11.75;4.18;;;;;;;10.37;100.00;101204.31;5061904;28;20132;-72
2022/11/06 01:31:34;;;;;;;7.38;3.10;;;;;;;10.36;100.00;101199.94;5066958;28;20041;-72
2022/11/06 01:34:02;;;;;;;14.88;4.07;;;;;;;10.32;100.00;101207.41;5062127;28;20399;-72
2022/11/06 01:36:29;;;;;;;11.13;4.50;;;;;;;10.40;100.00;101192.47;5062058;28;20045;-72
2022/11/06 01:38:58;;;;;;;11.05;3.67;;;;;;;10.33;100.00;101193.19;5062611;28;20052;-72
2022/11/06 01:41:28;;;;;;;4.47;1.75;;;;;;;10.27;100.00;101191.97;5061421;28;20137;-72
2022/11/06 01:43:58;;;;;;;7.70;3.42;;;;;;;10.35;100.00;101190.06;5062490;28;20075;-73
2022/11/06 01:46:28;;;;;;;8.55;2.85;;;;;;;10.27;100.00;101189.19;5061857;28;20052;-72
2022/11/06 01:48:58;;;;;;;14.02;3.58;;;;;;;10.34;100.00;101178.22;5062197;28;20049;-73
2022/11/06 01:51:28;;;;;;;9.68;4.03;;;;;;;10.33;100.00;101179.38;5053945;28;20052;-71
2022/11/06 01:53:56;;;;;;;12.40;3.70;;;;;;;10.29;100.00;101161.97;5052342;28;20091;-72
2022/11/06 01:56:23;;;;;;;11.05;2.75;;;;;;;10.24;100.00;101167.88;5059448;28;20041;-72
2022/11/06 01:58:52;;;;;;;16.65;5.03;;;;;;;10.32;100.00;101160.41;5060730;28;20065;-70
2022/11/06 02:01:19;;;;;;;9.48;3.08;;;;;;;10.18;100.00;101169.41;5061033;28;20076;-71
2022/11/06 02:04:03;;;;;;;13.65;3.90;;;;;;;10.14;100.00;101153.94;5059764;28;20716;-72
2022/11/06 02:06:31;;;;;;;8.10;2.20;;;;;;;10.10;100.00;101162.19;5066175;28;20071;-71
2022/11/06 02:09:01;;;;;;;9.90;3.45;;;;;;;10.13;100.00;101138.53;5059797;28;20060;-72
2022/11/06 02:11:28;;;;;;;7.50;3.00;;;;;;;10.20;100.00;101141.34;5065286;28;20048;-72
2022/11/06 02:14:03;;;;;;;12.88;4.18;;;;;;;10.19;100.00;101142.50;5060650;28;20065;-72
2022/11/06 02:16:38;;;;;;;;;;;;;;;10.17;100.00;101150.41;5061555;28;20059;-72
2022/11/06 02:19:37;;;;;;;10.73;3.38;;;;;;;10.00;100.00;101148.28;5065815;28;19951;-72
2022/11/06 02:22:23;;;;;;;12.00;3.13;;;;;;;10.10;100.00;101150.38;5059831;28;20459;-71
2022/11/06 02:25:23;;;;;;;3.42;1.50;;;;;;;10.12;100.00;101159.88;5064255;28;20053;-71
2022/11/06 02:27:56;;;;;;;5.53;1.88;;;;;;;10.18;100.00;101154.75;5058542;28;20056;-72
2022/11/06 02:30:26;;;;;;;9.48;3.55;;;;;;;10.21;100.00;101151.25;5067805;28;20129;-71
2022/11/06 02:32:55;;;;;;;8.00;2.45;;;;;;;10.24;100.00;101137.44;5061791;28;20056;-71
2022/11/06 02:35:33;;;;;;;11.80;3.03;;;;;;;10.25;100.00;101136.25;5063532;28;20059;-71
2022/11/06 02:38:11;;;;;;;5.10;1.95;;;;;;;10.29;100.00;101137.06;5060662;28;20453;-71
2022/11/06 02:40:46;;;;;;;11.43;2.65;;;;;;;10.31;100.00;101131.97;5062573;28;20141;-72
2022/11/06 02:43:15;;;;;;;13.45;4.25;;;;;;;10.31;100.00;101125.63;5064818;28;20056;-72
2022/11/06 02:45:52;;;;;;;5.53;1.40;;;;;;;10.30;100.00;101126.81;5051092;28;20048;-70
2022/11/06 02:48:25;;;;;;;8.63;2.83;;;;;;;10.27;100.00;101122.06;5053692;28;20083;-73
2022/11/06 02:50:53;;;;;;;8.77;3.28;;;;;;;10.29;100.00;101119.66;5060718;28;20505;-70
2022/11/06 02:53:23;;;;;;;6.55;2.35;;;;;;;10.20;100.00;101124.75;5060535;28;20055;-72
2022/11/06 02:55:54;;;;;;;3.05;1.58;;;;;;;10.19;100.00;101117.63;5065500;28;20087;-72
2022/11/06 02:58:38;;;;;;;10.50;2.75;;;;;;;10.18;100.00;101119.63;5064685;28;20048;-73
2022/11/06 03:01:13;;;;;;;8.75;3.03;;;;;;;10.15;100.00;101122.34;5060115;28;20487;-73
2022/11/06 03:03:50;;;;;;;12.68;3.63;;;;;;;10.14;100.00;101134.59;5051058;28;20098;-73
2022/11/06 03:06:30;;;;;;;8.07;2.28;;;;;;;10.13;100.00;101117.19;5065762;28;20106;-69
2022/11/06 03:09:20;;;;;;;3.70;2.22;;;;;;;10.15;100.00;101119.59;5063511;28;20480;-73
2022/11/06 03:11:56;;;;;;;9.95;3.22;;;;;;;10.10;100.00;101101.38;5062501;28;20048;-73
2022/11/06 03:14:33;;;;;;;11.13;3.90;;;;;;;10.08;100.00;101097.41;5059159;28;20053;-72
2022/11/06 03:17:08;;;;;;;10.43;2.80;;;;;;;10.04;100.00;101096.56;5063124;28;20056;-73
2022/11/06 03:19:38;;;;;;;11.75;3.15;;;;;;;10.14;100.00;101101.41;5048680;28;20061;-72
2022/11/06 03:22:19;;;;;;;5.05;1.55;;;;;;;10.00;100.00;101102.06;5063706;28;20060;-73
2022/11/06 03:25:04;;;;;;;4.63;2.05;;;;;;;9.99;100.00;101102.47;5064232;28;20055;-71
2022/11/06 03:27:33;;;;;;;3.25;1.45;;;;;;;10.00;100.00;101107.59;5067600;28;20421;-73
2022/11/06 03:30:26;;;;;;;6.38;2.38;;;;;;;9.98;100.00;101109.97;5067010;28;20127;-73
2022/11/06 03:32:59;;;;;;;3.17;1.50;;;;;;;10.02;100.00;101104.44;5056894;28;20052;-73
2022/11/06 03:35:58;;;;;;;6.72;2.05;;;;;;;10.00;100.00;101102.06;5056583;28;20044;-73
2022/11/06 03:38:32;;;;;;;5.05;1.98;;;;;;;9.99;100.00;101103.25;5042729;28;20056;-73
2022/11/06 03:41:10;;;;;;;7.20;2.63;;;;;;;10.05;100.00;101104.47;5058080;28;20045;-69
2022/11/06 03:43:41;;;;;;;7.10;2.75;;;;;;;10.06;100.00;101089.50;5049280;28;20071;-72
2022/11/06 03:46:18;;;;;;;7.93;2.05;;;;;;;9.99;100.00;101097.72;5057095;28;20044;-70
2022/11/06 03:49:08;;;;;;;8.85;2.40;;;;;;;10.02;100.00;101098.91;5052939;28;20053;-71
2022/11/06 03:51:51;;;;;;;7.88;2.22;;;;;;;10.01;100.00;101103.66;5055762;28;20056;-73
2022/11/06 03:54:37;;;;;;;6.63;1.65;;;;;;;10.00;100.00;101102.06;5055425;28;20049;-73
2022/11/06 03:57:10;;;;;;;7.55;2.65;;;;;;;10.05;100.00;101090.66;5056072;28;20073;-74
2022/11/06 03:59:43;;;;;;;8.40;3.38;;;;;;;10.09;100.00;101096.22;5058892;28;20056;-70
2022/11/06 04:02:12;;;;;;;5.57;2.10;;;;;;;10.07;100.00;101106.91;5054695;28;20052;-73
2022/11/06 04:04:47;;;;;;;13.70;3.65;;;;;;;10.09;100.00;101105.31;5065216;28;20048;-71
2022/11/06 04:07:18;;;;;;;9.90;2.08;;;;;;;10.05;100.00;101110.00;5060290;28;20703;-73
2022/11/06 04:15:21;;;;;;;9.45;3.05;;;;;;;10.08;100.00;101106.50;5059948;28;20049;-67
2022/11/06 04:17:48;;;;;;;4.35;1.98;;;;;;;10.07;100.00;101107.69;5060613;28;20067;-72
2022/11/06 04:23:29;;;;;;;10.73;3.45;;;;;;;10.22;100.00;101094.75;5060400;28;20060;-69
2022/11/06 04:29:36;;;;;;;13.02;3.00;;;;;;;10.16;100.00;101099.84;5057997;28;20356;-71
2022/11/06 04:32:17;;;;;;;12.13;2.90;;;;;;;10.08;100.00;101103.75;5050351;28;20668;-71
2022/11/06 04:34:52;;;;;;;5.85;2.20;;;;;;;9.97;100.00;101091.78;5063257;28;20048;-74
2022/11/06 04:37:38;;;;;;;4.60;1.50;;;;;;;9.95;100.00;101085.03;5061329;28;20052;-71
2022/11/06 04:40:10;;;;;;;6.05;2.30;;;;;;;10.01;100.00;101092.63;5060517;28;20055;-71
2022/11/06 04:42:55;;;;;;;9.88;3.30;;;;;;;10.03;100.00;101084.72;5050634;28;20567;-72
2022/11/06 04:45:45;;;;;;;7.45;2.90;;;;;;;9.85;100.00;101083.78;5060427;28;20102;-70
2022/11/06 04:48:18;;;;;;;4.65;1.90;;;;;;;9.90;100.00;101080.69;5060564;28;20125;-71
2022/11/06 04:50:51;;;;;;;7.78;2.05;;;;;;;9.98;100.00;101071.25;5061524;28;20060;-71
2022/11/06 04:53:19;;;;;;;12.38;2.88;;;;;;;9.96;100.00;101072.84;5061569;28;20054;-72
2022/11/06 04:55:48;;;;;;;14.18;3.15;;;;;;;9.94;100.00;101064.13;5058878;28;20059;-71
2022/11/06 04:58:14;;;;;;;5.05;1.75;;;;;;;9.84;100.00;101070.34;5054565;28;20070;-72
2022/11/06 05:01:04;;;;;;;10.75;2.92;;;;;;;9.93;100.00;101074.38;5062201;28;20048;-71
2022/11/06 05:03:31;;;;;;;7.70;2.60;;;;;;;9.93;100.00;101068.84;5062465;28;20056;-72
2022/11/06 05:05:57;;;;;;;13.73;2.97;;;;;;;9.95;100.00;101065.69;5054331;28;20123;-70
2022/11/06 05:08:24;;;;;;;9.82;3.00;;;;;;;9.94;100.00;101064.13;5058992;28;20044;-70
2022/11/06 05:10:50;;;;;;;6.45;2.60;;;;;;;9.93;100.00;101049.50;5054054;28;20103;-72
2022/11/06 05:13:16;;;;;;;7.25;2.75;;;;;;;9.95;100.00;101038.84;5055418;28;20064;-71
2022/11/06 05:15:43;;;;;;;6.55;1.75;;;;;;;9.92;100.00;101038.81;5055879;28;20056;-71
2022/11/06 05:18:10;;;;;;;6.88;1.98;;;;;;;9.94;100.00;101025.41;5063176;28;20452;-72
2022/11/06 05:20:37;;;;;;;11.02;2.72;;;;;;;9.96;100.00;101026.59;5063401;28;20562;-73
2022/11/06 05:23:06;;;;;;;6.78;2.08;;;;;;;9.94;100.00;101034.50;5062673;28;20057;-73
2022/11/06 05:25:37;;;;;;;8.75;2.35;;;;;;;10.03;100.00;101012.84;5055720;28;20071;-72
2022/11/06 05:28:05;;;;;;;4.68;2.00;;;;;;;10.02;100.00;101013.22;5066124;28;20044;-71
2022/11/06 05:30:34;;;;;;;7.47;1.50;;;;;;;9.99;100.00;101017.56;5054228;28;20144;-72
2022/11/06 05:33:01;;;;;;;6.93;2.08;;;;;;;9.95;100.00;101021.47;5054353;28;20052;-72
2022/11/06 05:35:27;;;;;;;10.52;2.70;;;;;;;10.00;100.00;101024.66;5066206;28;20040;-72
2022/11/06 05:38:02;;;;;;;5.68;1.95;;;;;;;9.96;100.00;101017.53;5058422;28;20761;-72
2022/11/06 05:40:28;;;;;;;11.57;2.22;;;;;;;10.04;100.00;101006.16;5054209;28;20487;-72
2022/11/06 05:42:55;;;;;;;7.55;2.08;;;;;;;10.05;100.00;101010.47;5065789;28;20059;-72
2022/11/06 05:45:24;;;;;;;9.55;2.60;;;;;;;9.99;100.00;101008.47;5059921;28;20053;-71
2022/11/06 05:47:51;;;;;;;6.88;2.55;;;;;;;10.01;100.00;100995.06;5066862;28;20056;-73
2022/11/06 05:50:17;;;;;;;7.40;2.10;;;;;;;10.04;100.00;101003.38;5065536;28;20113;-73
2022/11/06 05:52:43;;;;;;;8.57;2.50;;;;;;;9.97;100.00;101002.53;5054559;28;20452;-71
2022/11/06 05:55:10;;;;;;;6.65;2.33;;;;;;;9.96;100.00;100998.97;5065551;28;20057;-71
2022/11/06 05:57:41;;;;;;;14.75;3.47;;;;;;;9.94;100.00;100989.47;5059533;28;20048;-71
2022/11/06 06:00:09;;;;;;;10.13;2.95;;;;;;;9.98;100.00;100987.53;5064048;28;20055;-71
2022/11/06 06:02:39;;;;;;;12.40;3.55;;;;;;;9.87;100.00;100984.72;5064293;28;20102;-73
2022/11/06 06:05:06;;;;;;;3.85;1.35;;;;;;;9.88;100.00;100972.47;5063783;28;20156;-71
2022/11/06 06:07:33;;;;;;;8.40;1.95;;;;;;;9.94;100.00;100982.00;5064706;28;20068;-73
2022/11/06 06:10:00;;;;;;;7.63;2.05;;;;;;;9.94;100.00;100975.66;5062183;28;20520;-73
2022/11/06 06:12:27;;;;;;;10.05;2.33;;;;;;;9.95;100.00;100977.25;5061968;28;20505;-70
2022/11/06 06:14:53;;;;;;;7.68;2.58;;;;;;;9.93;100.00;100971.31;5059855;28;20056;-73
2022/11/06 06:17:20;;;;;;;10.80;2.80;;;;;;;9.97;100.00;100966.59;5053539;28;20421;-70
2022/11/06 06:19:47;;;;;;;10.70;2.35;;;;;;;9.96;100.00;100971.31;5061178;28;20068;-71
2022/11/06 06:22:13;;;;;;;8.85;2.40;;;;;;;9.93;100.00;100966.56;5061807;28;20056;-71
2022/11/06 06:24:40;;;;;;;8.75;2.20;;;;;;;9.91;100.00;100981.97;5065211;28;20055;-71
2022/11/06 06:27:07;;;;;;;6.85;2.75;;;;;;;9.87;100.00;100981.16;5066494;28;20048;-70
2022/11/06 06:29:33;;;;;;;7.40;2.38;;;;;;;9.85;100.00;100964.16;5059273;28;20591;-74
2022/11/06 06:32:00;;;;;;;3.13;0.98;;;;;;;9.85;100.00;100973.25;5060354;28;20058;-72
2022/11/06 06:34:26;;;;;;;4.20;1.83;;;;;;;9.88;100.00;100958.66;5059837;28;20063;-72
2022/11/06 06:36:53;;;;;;;9.95;2.40;;;;;;;9.94;100.00;100970.13;5061183;28;20528;-71
2022/11/06 06:39:20;;;;;;;7.90;2.05;;;;;;;9.85;100.00;100970.47;5064657;28;20057;-71
2022/11/06 06:41:47;;;;;;;10.68;2.25;;;;;;;9.89;100.00;100970.50;5059157;28;20439;-70
2022/11/06 06:44:15;;;;;;;8.18;2.10;;;;;;;9.94;100.00;100959.06;5063168;28;20079;-72
2022/11/06 06:46:42;;;;;;;8.70;3.17;;;;;;;9.95;100.00;100961.47;5062335;28;20044;-70
2022/11/06 06:49:09;;;;;;;8.93;2.13;;;;;;;9.92;100.00;100966.94;5066142;28;20424;-71
2022/11/06 06:51:35;;;;;;;9.35;2.55;;;;;;;9.92;100.00;100961.44;5065283;28;20800;-71
2022/11/06 06:54:02;;;;;;;6.40;2.17;;;;;;;9.88;100.00;100957.84;5065544;28;20079;-71
2022/11/06 06:56:29;;;;;;;11.07;2.25;;;;;;;9.91;100.00;100959.84;5062784;28;20056;-70
2022/11/06 06:58:56;;;;;;;9.15;2.47;;;;;;;9.88;100.00;100963.38;5065142;28;20117;-70
2022/11/06 07:01:22;;;;;;;8.10;2.30;;;;;;;9.92;100.00;100966.94;5068286;28;20048;-71
2022/11/06 07:03:49;;;;;;;14.90;3.03;;;;;;;9.92;100.00;100972.47;5062444;28;20061;-71
2022/11/06 07:06:19;;;;;;;8.68;3.42;;;;;;;9.95;100.00;100977.25;5059085;28;20048;-71
2022/11/06 07:08:46;;;;;;;12.68;2.55;;;;;;;9.96;100.00;100979.63;5056791;28;20049;-70
2022/11/06 07:11:13;;;;;;;9.35;2.03;;;;;;;9.94;100.00;100979.22;5059796;28;20044;-71
2022/11/06 07:13:40;;;;;;;7.88;2.75;;;;;;;10.00;100.00;100977.66;5062633;28;20094;-72
2022/11/06 07:16:10;;;;;;;6.10;2.20;;;;;;;10.03;100.00;100979.66;5065161;28;20149;-72
2022/11/06 07:18:43;;;;;;;11.65;2.50;;;;;;;10.02;100.00;100974.50;5064508;28;20136;-71
2022/11/06 07:21:13;;;;;;;9.63;2.55;;;;;;;10.07;100.00;100979.72;5062859;28;20056;-72
2022/11/06 07:23:40;;;;;;;6.63;1.77;;;;;;;10.04;100.00;100981.25;5057813;28;20122;-72
2022/11/06 07:26:07;;;;;;;2.53;1.73;;;;;;;10.09;100.00;100978.16;5063915;28;20045;-73
2022/11/06 07:28:34;;;;;;;13.65;2.80;;;;;;;10.19;100.00;100980.16;5056296;28;20056;-70
2022/11/06 07:31:03;;;;;;;12.15;2.13;;;;;;;10.21;100.00;100980.59;5056393;28;20048;-71
2022/11/06 07:33:31;;;;;;;8.82;2.45;;;;;;;10.22;100.00;100984.94;5057783;28;20053;-71
2022/11/06 07:36:06;;;;;;;10.30;2.58;;;;;;;10.29;100.00;100993.25;5056540;28;20106;-68
2022/11/06 07:38:34;;;;;;;;;;;;;;;10.34;100.00;100995.66;5059022;28;20058;-71
2022/11/06 07:41:05;;;;;;;3.70;1.45;;;;;;;10.37;100.00;100999.63;5065563;28;19931;-71
2022/11/06 07:43:32;;;;;;;4.32;1.88;;;;;;;10.38;100.00;100990.94;5059096;28;20041;-70
2022/11/06 07:46:04;;;;;;;8.68;1.92;;;;;;;10.49;100.00;100988.19;5061689;28;20059;-69
2022/11/06 07:48:31;;;;;;;6.68;2.03;;;;;;;10.54;100.00;100987.81;5061507;28;20493;-73
2022/11/06 07:51:01;;;;;;;7.25;2.60;;;;;;;10.57;100.00;100982.28;5055341;28;20057;-72
2022/11/06 07:53:28;;;;;;;6.80;2.25;;;;;;;10.63;100.00;100985.47;5060904;28;20056;-71
2022/11/06 07:55:55;;;;;;;4.90;1.23;;;;;;;10.64;100.00;100986.25;5061249;28;20056;-71
2022/11/06 07:58:22;;;;;;;5.25;1.70;;;;;;;10.74;100.00;100974.44;5052087;28;20504;-71
2022/11/06 08:00:51;;;;;;;3.42;1.05;;;;;;;10.80;100.00;100967.34;5063257;28;20044;-70
2022/11/06 08:03:18;;;;;;;9.10;2.30;;;;;;;10.93;100.00;100968.53;5059719;28;20541;-71
2022/11/06 08:05:45;;;;;;;3.88;1.33;;;;;;;10.89;100.00;100970.50;5066252;28;20098;-71
2022/11/06 08:08:12;;;;;;;3.30;1.00;;;;;;;10.92;100.00;100958.63;5061181;28;20048;-72
2022/11/06 08:10:42;;;;;;;14.43;2.67;;;;;;;11.02;100.00;100958.66;5059013;28;20044;-72
2022/11/06 08:13:10;;;;;;;10.32;2.58;;;;;;;11.11;100.00;100969.34;5058940;28;20059;-71
2022/11/06 08:15:38;;;;;;;3.13;1.15;;;;;;;11.10;100.00;100965.78;5048354;28;20464;-71
2022/11/06 08:18:06;;;;;;;5.93;2.20;;;;;;;11.23;100.00;100961.44;5055328;28;20052;-71
2022/11/06 08:20:34;;;;;;;4.32;1.55;;;;;;;11.22;100.00;100967.38;5057145;28;20052;-69
2022/11/06 08:23:04;;;;;;;3.95;1.75;;;;;;;11.35;100.00;100965.78;5058151;28;20041;-72
2022/11/06 08:25:31;;;;;;;6.75;1.65;;;;;;;11.30;100.00;100966.19;5060990;28;20049;-72
2022/11/06 08:27:59;;;;;;;2.60;1.52;;;;;;;11.33;100.00;100960.66;5062736;28;20147;-73
2022/11/06 08:30:27;;;;;;;2.45;1.17;;;;;;;11.53;100.00;100958.25;5053808;28;20049;-74
2022/11/06 08:32:54;;;;;;;3.88;1.83;;;;;;;11.61;100.00;100962.59;5056147;28;20052;-71
2022/11/06 08:35:21;;;;;;;3.15;1.02;;;;;;;11.59;100.00;100960.22;5051935;28;20048;-72
2022/11/06 08:37:47;;;;;;;2.15;0.93;;;;;;;11.65;100.00;100958.66;5054305;28;20497;-71
2022/11/06 08:40:14;;;;;;;8.60;2.22;;;;;;;11.67;100.00;100952.72;5050732;28;20444;-72
2022/11/06 08:42:40;;;;;;;6.10;1.98;;;;;;;11.71;100.00;100959.06;5067113;28;20041;-72
2022/11/06 08:45:07;;;;;;;9.35;1.88;;;;;;;11.81;100.00;100959.03;5064385;28;20063;-72
2022/11/06 08:47:34;;;;;;;1.70;0.90;;;;;;;11.91;100.00;100943.56;5062985;28;20045;-71
2022/11/06 08:50:00;;;;;;;5.45;1.20;;;;;;;11.97;100.00;100939.16;5053417;28;20057;-73
2022/11/06 08:52:27;;;;;;;6.50;2.03;;;;;;;12.08;100.00;100931.63;5063660;28;20051;-70
2022/11/06 08:54:59;;;;;;;2.17;0.73;;;;;;;12.16;100.00;100933.16;5065329;28;20049;-72
2022/11/06 08:57:27;;;;;;;3.15;0.70;;;;;;;12.22;100.00;100917.69;5061281;28;20044;-70
2022/11/06 08:59:53;;;;;;;2.47;1.27;;;;;;;12.23;100.00;100925.63;5056160;28;20044;-71
2022/11/06 09:02:19;;;;;;;4.30;1.60;;;;;;;12.38;100.00;100926.31;5086034;28;20114;-70
2022/11/06 09:04:46;;;;;;;6.20;2.15;;;;;;;12.61;100.00;100923.81;5087490;28;20546;-71
2022/11/06 09:07:12;;;;;;;6.95;1.70;;;;;;;12.70;100.00;100905.50;5068427;28;20048;-70
2022/11/06 09:09:39;;;;;;;5.30;1.45;;;;;;;12.76;100.00;100909.44;5060779;28;20394;-71
2022/11/06 09:12:06;;;;;;;5.38;1.48;;;;;;;13.05;100.00;100910.03;5055170;28;20060;-70
2022/11/06 09:14:33;;;;;;;2.38;1.27;;;;;;;12.98;100.00;100910.06;5074313;28;20048;-71
2022/11/06 09:16:59;;;;;;;9.82;1.90;;;;;;;13.12;100.00;100898.88;5066056;28;20064;-70
2022/11/06 09:19:26;;;;;;;7.30;1.98;;;;;;;13.10;100.00;100906.84;5064844;28;20052;-70
2022/11/06 09:21:52;;;;;;;3.38;1.45;;;;;;;12.98;100.00;100918.41;5063905;28;20049;-73
2022/11/06 09:24:20;;;;;;;5.07;1.90;;;;;;;12.96;100.00;100918.00;5058078;28;20048;-71
2022/11/06 09:27:07;;;;;;;5.65;1.92;;;;;;;12.94;100.00;100912.09;5061751;28;20118;-71
2022/11/06 09:29:34;;;;;;;2.28;1.10;;;;;;;12.97;100.00;100895.38;5067012;28;20060;-73
2022/11/06 09:32:00;;;;;;;3.75;1.02;;;;;;;12.98;100.00;100885.06;5068042;28;20163;-70
2022/11/06 09:34:26;;;;;;;1.38;0.63;;;;;;;13.00;100.00;100891.81;5064496;28;20048;-71
2022/11/06 09:36:53;;;;;;;3.95;1.40;;;;;;;13.03;100.00;100884.69;5067501;28;20061;-70
2022/11/06 09:39:19;;;;;;;10.80;2.35;;;;;;;13.18;100.00;100883.34;5061396;28;20059;-71
2022/11/06 09:42:21;;;;;;;6.78;1.77;;;;;;;13.15;100.00;100873.03;5064687;28;20505;-71
2022/11/06 09:45:10;;;;;;;8.10;2.10;;;;;;;13.17;100.00;100867.88;5056434;28;20505;-72
2022/11/06 09:47:42;;;;;;;7.28;1.63;;;;;;;13.14;100.00;100863.13;5066240;28;20455;-71
2022/11/06 09:50:16;;;;;;;5.03;1.70;;;;;;;13.23;100.00;100857.88;5061648;28;20535;-71
2022/11/06 09:52:49;;;;;;;7.30;2.00;;;;;;;13.37;100.00;100849.41;5066146;28;20425;-71
2022/11/06 09:55:38;;;;;;;7.80;1.70;;;;;;;13.37;100.00;100859.75;5066970;28;20063;-72
2022/11/06 09:58:19;;;;;;;6.13;1.70;;;;;;;13.51;100.00;100852.03;5061663;28;20056;-71
2022/11/06 10:00:48;;;;;;;1.92;1.00;;;;;;;13.40;100.00;100854.13;5043083;28;20086;-71
2022/11/06 10:03:23;;;;;;;3.42;1.00;;;;;;;13.50;100.00;100852.47;5064854;28;20522;-71
2022/11/06 10:05:52;;;;;;;10.52;2.15;;;;;;;13.90;100.00;100846.03;5051454;28;20398;-70
2022/11/06 10:08:28;;;;;;;6.50;2.08;;;;;;;14.08;100.00;100841.03;5054351;28;20056;-72
2022/11/06 10:11:06;;;;;;;3.78;1.10;;;;;;;14.05;99.23;100841.84;5064508;28;20048;-70
2022/11/06 10:13:48;;;;;;;11.45;2.58;;;;;;;14.23;98.83;100848.78;5062730;28;20048;-73
2022/11/06 10:16:23;;;;;;;2.85;1.08;;;;;;;14.35;96.95;100839.09;5066130;28;20059;-72
2022/11/06 10:18:54;;;;;;;8.52;1.85;;;;;;;14.66;95.85;100832.22;5057967;28;20053;-72
2022/11/06 10:21:32;;;;;;;5.40;1.08;;;;;;;14.62;93.30;100834.28;5065320;28;20097;-72
2022/11/06 10:24:07;;;;;;;3.58;1.13;;;;;;;14.68;92.35;100836.16;5060411;28;20531;-73
2022/11/06 10:26:39;;;;;;;5.25;2.00;;;;;;;14.86;92.86;100830.31;5064861;28;20428;-71
2022/11/06 10:29:40;;;;;;;5.88;2.13;;;;;;;14.84;90.31;100822.38;5071075;28;20519;-71
2022/11/06 10:32:21;;;;;;;5.85;1.48;;;;;;;14.77;90.63;100819.72;5062544;28;20053;-70
2022/11/06 10:34:53;;;;;;;5.25;1.50;;;;;;;14.61;91.87;100821.56;5063450;28;20052;-69
2022/11/06 10:37:31;;;;;;;11.90;2.63;;;;;;;14.78;92.16;100812.16;5060338;28;20048;-73
2022/11/06 10:39:59;;;;;;;3.38;1.42;;;;;;;14.63;91.95;100817.16;5066832;28;20063;-72
2022/11/06 10:42:30;;;;;;;5.55;1.90;;;;;;;14.55;91.45;100818.47;5067555;28;20052;-72
2022/11/06 10:45:10;;;;;;;3.90;1.58;;;;;;;14.63;91.01;100811.59;5041517;28;20153;-73
2022/11/06 10:47:47;;;;;;;10.13;1.30;;;;;;;14.50;90.84;100813.38;5045173;28;20905;-73
2022/11/06 10:50:16;;;;;;;6.90;1.38;;;;;;;14.62;90.52;100801.66;5037930;28;20059;-73
2022/11/06 10:53:01;;;;;;;2.25;0.85;;;;;;;14.83;89.50;100806.88;5050007;28;20480;-73
2022/11/06 10:56:05;;;;;;;4.53;1.65;;;;;;;15.03;88.15;100802.16;5046880;28;20056;-73
2022/11/06 10:58:36;;;;;;;5.28;1.77;;;;;;;15.34;86.45;100802.75;5045673;28;20048;-71
2022/11/06 11:01:05;;;;;;;12.52;2.90;;;;;;;15.42;84.96;100795.84;5041134;28;20052;-73
2022/11/06 11:03:41;;;;;;;7.47;1.98;;;;;;;15.26;83.06;100792.97;5033417;28;20174;-73
2022/11/06 11:06:08;;;;;;;5.60;2.30;;;;;;;14.84;85.71;100794.53;5040935;28;20056;-72
2022/11/06 11:08:39;;;;;;;5.40;1.85;;;;;;;14.89;87.14;100788.44;5044751;28;20885;-73
2022/11/06 11:11:14;;;;;;;6.25;1.70;;;;;;;14.97;87.09;100777.97;5040943;28;20067;-73
2022/11/06 11:14:07;;;;;;;;;;;;;;;15.10;84.71;100776.94;5042732;28;20064;-72
2022/11/06 11:16:38;;;;;;;5.72;1.85;;;;;;;15.11;84.48;100772.94;5042922;28;19930;-72
2022/11/06 11:19:40;;;;;;;6.93;2.17;;;;;;;15.19;85.68;100765.25;5037124;28;20053;-72
2022/11/06 11:22:18;;;;;;;2.78;1.45;;;;;;;15.64;84.81;100746.03;5035840;28;20056;-75
2022/11/06 11:25:00;;;;;;;4.38;2.45;;;;;;;16.86;73.60;100737.53;5043744;28;20159;-72
2022/11/06 11:27:28;;;;;;;7.57;2.17;;;;;;;17.01;71.60;100738.72;5045280;28;20697;-73
2022/11/06 11:29:56;;;;;;;7.20;2.25;;;;;;;17.12;69.41;100739.22;5037488;28;20470;-73
2022/11/06 11:32:23;;;;;;;11.15;2.85;;;;;;;16.88;70.82;100731.50;5040440;28;20051;-73
2022/11/06 11:34:53;;;;;;;8.00;2.30;;;;;;;16.20;74.53;100733.59;5033507;28;20903;-73
2022/11/06 11:37:31;;;;;;;6.47;2.65;;;;;;;15.55;76.70;100726.31;5039873;28;20059;-73
2022/11/06 11:40:25;;;;;;;2.22;0.70;;;;;;;15.30;78.64;100724.75;5040307;28;20052;-72
2022/11/06 11:42:52;;;;;;;6.65;1.33;;;;;;;15.05;79.26;100732.03;5036641;28;20048;-73
2022/11/06 11:45:20;;;;;;;8.70;2.47;;;;;;;15.01;79.55;100722.97;5043304;28;20055;-71
2022/11/06 11:47:50;;;;;;;2.40;1.25;;;;;;;14.77;81.89;100713.88;5036112;28;20094;-70
2022/11/06 11:50:33;;;;;;;5.40;1.15;;;;;;;14.64;81.78;100695.41;5039852;28;20051;-73
2022/11/06 11:53:17;;;;;;;5.93;1.40;;;;;;;14.63;82.82;100694.63;5038038;28;20059;-73